Jacksonville, FL

1:39 AM EST on February 12, 2016 (GMT -0500)
Cecil | | Change Station
CLOSE
Current Station
Airport
Location: Cecil Field,
Elevation: 82 ft
Nearby Weather Stations

Elev 82 ft 30.22 °N, 81.88 °W | Updated 49 minutes ago

Clear
Clear
50 °F
Feels Like 50 °F
N
5
Wind Variable Wind from South

Today
High -- | Low -- °F
--% Chance of Precip.
Yesterday
High -- | Low -- °F
Precip. -- in
Pressure 30.23 in
Visibility 10.0 miles
Clouds Clear
Dew Point 48 °F
Humidity 94%
Rainfall 0.00 in
Snow Depth Not available.
7:10 AM 6:13 PM
Waxing Crescent, 18% visible
METAR KVQQ 120550Z 18004KT 10SM CLR 10/09 A3023
Pressure 30.23 in
Visibility 10.0 miles
Clouds Clear
Dew Point 48 °F
Humidity 94%
Rainfall 0.00 in
Snow Depth Not available.
7:10 AM 6:13 PM
Waxing Crescent, 18% visible
METAR KVQQ 120550Z 18004KT 10SM CLR 10/09 A3023

10-Day Weather Forecast

Almanac

Astronomy

Feb. 12, 2016 Rise Set
Actual Time
Civil Twilight
Nautical Twilight
Astronomical Twilight
Moon
Length of Visible Light
Length of Day
Tomorrow will be .
, % of the Moon is Illuminated

Today's Extremes

State Highs State Lows

Community

WunderPhotos

Upload Photos

1,892,276 photos uploaded!

WunderBlog® & News

Nearby

Air Quality

  Air Quality AQ Index Pollutant
Not available.

Snow Depth

Station Depth Elevation

Earthquake Activity

City Distance Mag. Time & Date
Minimum magnitude displayed is 2.5.

Coastal Water Temperatures

Place Temperature

Stations

Nearby Weather Stations

Station Location Temp. Windchill Dew Point Humidity Wind Precip. Elev Updated Type
                   

Watches & Warnings

There are currently no watches in effect.